sensor_id;sensor_type;location;lat;lon;timestamp;P1;durP1;ratioP1;P2;durP2;ratioP2
25123;SDS011;13104;51.030;4.686;2022-07-10T00:00:08;5.90;;;2.42;;
25123;SDS011;13104;51.030;4.686;2022-07-10T00:02:34;5.88;;;2.05;;
25123;SDS011;13104;51.030;4.686;2022-07-10T00:05:00;5.63;;;2.30;;
25123;SDS011;13104;51.030;4.686;2022-07-10T00:07:26;10.43;;;2.53;;
25123;SDS011;13104;51.030;4.686;2022-07-10T00:09:52;6.28;;;2.25;;
25123;SDS011;13104;51.030;4.686;2022-07-10T00:12:18;6.97;;;2.40;;
25123;SDS011;13104;51.030;4.686;2022-07-10T00:14:45;4.43;;;2.10;;
25123;SDS011;13104;51.030;4.686;2022-07-10T00:17:11;7.05;;;2.50;;
25123;SDS011;13104;51.030;4.686;2022-07-10T00:19:37;6.47;;;2.53;;
25123;SDS011;13104;51.030;4.686;2022-07-10T00:22:03;7.93;;;2.60;;
25123;SDS011;13104;51.030;4.686;2022-07-10T00:24:29;8.80;;;2.60;;
25123;SDS011;13104;51.030;4.686;2022-07-10T00:26:55;8.10;;;2.60;;
25123;SDS011;13104;51.030;4.686;2022-07-10T00:29:21;10.55;;;2.40;;
25123;SDS011;13104;51.030;4.686;2022-07-10T00:31:48;7.78;;;2.47;;
25123;SDS011;13104;51.030;4.686;2022-07-10T00:34:14;9.32;;;2.70;;
25123;SDS011;13104;51.030;4.686;2022-07-10T00:36:40;7.20;;;2.75;;
25123;SDS011;13104;51.030;4.686;2022-07-10T00:39:06;5.68;;;2.40;;
25123;SDS011;13104;51.030;4.686;2022-07-10T00:41:32;6.20;;;2.67;;
25123;SDS011;13104;51.030;4.686;2022-07-10T00:43:58;11.32;;;3.10;;
25123;SDS011;13104;51.030;4.686;2022-07-10T00:46:25;5.68;;;2.53;;
25123;SDS011;13104;51.030;4.686;2022-07-10T00:48:52;9.63;;;2.35;;
25123;SDS011;13104;51.030;4.686;2022-07-10T00:51:18;7.57;;;2.80;;
25123;SDS011;13104;51.030;4.686;2022-07-10T00:53:46;4.38;;;2.40;;
25123;SDS011;13104;51.030;4.686;2022-07-10T00:56:17;11.18;;;3.05;;
25123;SDS011;13104;51.030;4.686;2022-07-10T00:58:45;8.15;;;2.63;;
25123;SDS011;13104;51.030;4.686;2022-07-10T01:01:11;5.30;;;2.53;;
25123;SDS011;13104;51.030;4.686;2022-07-10T01:03:37;10.68;;;2.75;;
25123;SDS011;13104;51.030;4.686;2022-07-10T01:06:04;8.50;;;2.65;;
25123;SDS011;13104;51.030;4.686;2022-07-10T01:08:30;7.93;;;2.38;;
25123;SDS011;13104;51.030;4.686;2022-07-10T01:10:56;7.68;;;3.00;;
25123;SDS011;13104;51.030;4.686;2022-07-10T01:13:23;6.47;;;2.50;;
25123;SDS011;13104;51.030;4.686;2022-07-10T01:15:49;8.50;;;2.70;;
25123;SDS011;13104;51.030;4.686;2022-07-10T01:18:15;5.65;;;3.20;;
25123;SDS011;13104;51.030;4.686;2022-07-10T01:20:41;6.03;;;2.85;;
25123;SDS011;13104;51.030;4.686;2022-07-10T01:23:07;6.43;;;2.85;;
25123;SDS011;13104;51.030;4.686;2022-07-10T01:25:33;6.32;;;2.63;;
25123;SDS011;13104;51.030;4.686;2022-07-10T01:27:59;8.88;;;3.25;;
25123;SDS011;13104;51.030;4.686;2022-07-10T01:30:26;6.47;;;2.95;;
25123;SDS011;13104;51.030;4.686;2022-07-10T01:32:52;13.60;;;3.17;;
25123;SDS011;13104;51.030;4.686;2022-07-10T01:35:18;8.48;;;3.10;;
25123;SDS011;13104;51.030;4.686;2022-07-10T01:37:44;7.65;;;2.85;;
25123;SDS011;13104;51.030;4.686;2022-07-10T01:40:11;5.75;;;2.95;;
25123;SDS011;13104;51.030;4.686;2022-07-10T01:42:38;6.07;;;3.08;;
25123;SDS011;13104;51.030;4.686;2022-07-10T01:45:05;10.35;;;3.15;;
25123;SDS011;13104;51.030;4.686;2022-07-10T01:47:32;7.05;;;3.28;;
25123;SDS011;13104;51.030;4.686;2022-07-10T01:49:58;6.75;;;3.38;;
25123;SDS011;13104;51.030;4.686;2022-07-10T01:52:24;13.38;;;3.35;;
25123;SDS011;13104;51.030;4.686;2022-07-10T01:54:50;10.30;;;3.47;;
25123;SDS011;13104;51.030;4.686;2022-07-10T01:57:16;9.90;;;2.75;;
25123;SDS011;13104;51.030;4.686;2022-07-10T01:59:42;7.18;;;3.30;;
25123;SDS011;13104;51.030;4.686;2022-07-10T02:02:09;6.18;;;3.55;;
25123;SDS011;13104;51.030;4.686;2022-07-10T02:04:35;5.97;;;3.35;;
25123;SDS011;13104;51.030;4.686;2022-07-10T02:07:11;7.13;;;3.00;;
25123;SDS011;13104;51.030;4.686;2022-07-10T02:09:37;5.13;;;2.97;;
25123;SDS011;13104;51.030;4.686;2022-07-10T02:12:10;8.07;;;3.30;;
25123;SDS011;13104;51.030;4.686;2022-07-10T02:14:37;11.32;;;3.72;;
25123;SDS011;13104;51.030;4.686;2022-07-10T02:17:04;12.00;;;3.55;;
25123;SDS011;13104;51.030;4.686;2022-07-10T02:19:30;7.68;;;3.53;;
25123;SDS011;13104;51.030;4.686;2022-07-10T02:21:56;11.05;;;3.85;;
25123;SDS011;13104;51.030;4.686;2022-07-10T02:24:22;8.35;;;3.75;;
25123;SDS011;13104;51.030;4.686;2022-07-10T02:26:49;5.70;;;3.50;;
25123;SDS011;13104;51.030;4.686;2022-07-10T02:29:15;7.93;;;3.67;;
25123;SDS011;13104;51.030;4.686;2022-07-10T02:31:42;8.57;;;3.65;;
25123;SDS011;13104;51.030;4.686;2022-07-10T02:34:11;7.57;;;3.78;;
25123;SDS011;13104;51.030;4.686;2022-07-10T02:36:40;10.00;;;3.78;;
25123;SDS011;13104;51.030;4.686;2022-07-10T02:39:07;5.75;;;3.40;;
25123;SDS011;13104;51.030;4.686;2022-07-10T02:41:34;7.00;;;3.50;;
25123;SDS011;13104;51.030;4.686;2022-07-10T02:44:01;14.90;;;4.38;;
25123;SDS011;13104;51.030;4.686;2022-07-10T02:46:27;8.18;;;3.97;;
25123;SDS011;13104;51.030;4.686;2022-07-10T02:48:53;11.55;;;3.83;;
25123;SDS011;13104;51.030;4.686;2022-07-10T02:51:19;9.40;;;4.20;;
25123;SDS011;13104;51.030;4.686;2022-07-10T02:53:45;9.45;;;4.35;;
25123;SDS011;13104;51.030;4.686;2022-07-10T02:56:11;7.93;;;4.03;;
25123;SDS011;13104;51.030;4.686;2022-07-10T02:58:37;7.32;;;3.83;;
25123;SDS011;13104;51.030;4.686;2022-07-10T03:01:04;7.85;;;4.20;;
25123;SDS011;13104;51.030;4.686;2022-07-10T03:03:30;12.10;;;4.65;;
25123;SDS011;13104;51.030;4.686;2022-07-10T03:05:56;7.80;;;3.88;;
25123;SDS011;13104;51.030;4.686;2022-07-10T03:08:23;8.93;;;3.85;;
25123;SDS011;13104;51.030;4.686;2022-07-10T03:10:49;7.00;;;4.05;;
25123;SDS011;13104;51.030;4.686;2022-07-10T03:13:15;6.53;;;3.88;;
25123;SDS011;13104;51.030;4.686;2022-07-10T03:15:41;10.80;;;4.22;;
25123;SDS011;13104;51.030;4.686;2022-07-10T03:18:07;9.30;;;4.03;;
25123;SDS011;13104;51.030;4.686;2022-07-10T03:20:33;14.35;;;4.82;;
25123;SDS011;13104;51.030;4.686;2022-07-10T03:22:59;7.45;;;3.97;;
25123;SDS011;13104;51.030;4.686;2022-07-10T03:25:25;11.60;;;4.30;;
25123;SDS011;13104;51.030;4.686;2022-07-10T03:27:51;10.38;;;4.60;;
25123;SDS011;13104;51.030;4.686;2022-07-10T03:30:17;9.45;;;4.47;;
25123;SDS011;13104;51.030;4.686;2022-07-10T03:32:45;17.13;;;4.50;;
25123;SDS011;13104;51.030;4.686;2022-07-10T03:35:11;8.02;;;4.30;;
25123;SDS011;13104;51.030;4.686;2022-07-10T03:37:37;6.15;;;4.10;;
25123;SDS011;13104;51.030;4.686;2022-07-10T03:40:03;5.00;;;4.00;;
25123;SDS011;13104;51.030;4.686;2022-07-10T03:42:30;6.75;;;4.38;;
25123;SDS011;13104;51.030;4.686;2022-07-10T03:44:56;10.07;;;4.30;;
25123;SDS011;13104;51.030;4.686;2022-07-10T03:47:22;7.85;;;4.20;;
25123;SDS011;13104;51.030;4.686;2022-07-10T03:49:48;11.77;;;4.18;;
25123;SDS011;13104;51.030;4.686;2022-07-10T03:52:15;7.95;;;4.13;;
25123;SDS011;13104;51.030;4.686;2022-07-10T03:54:41;5.90;;;3.65;;
25123;SDS011;13104;51.030;4.686;2022-07-10T03:57:07;9.88;;;4.28;;
25123;SDS011;13104;51.030;4.686;2022-07-10T03:59:51;7.15;;;2.85;;
25123;SDS011;13104;51.030;4.686;2022-07-10T04:02:17;12.23;;;4.65;;
25123;SDS011;13104;51.030;4.686;2022-07-10T04:04:43;7.15;;;4.13;;
25123;SDS011;13104;51.030;4.686;2022-07-10T04:07:10;7.50;;;3.92;;
25123;SDS011;13104;51.030;4.686;2022-07-10T04:09:37;9.55;;;4.30;;
25123;SDS011;13104;51.030;4.686;2022-07-10T04:12:04;6.78;;;3.67;;
25123;SDS011;13104;51.030;4.686;2022-07-10T04:14:30;6.40;;;3.90;;
25123;SDS011;13104;51.030;4.686;2022-07-10T04:16:56;8.55;;;4.05;;
25123;SDS011;13104;51.030;4.686;2022-07-10T04:19:22;8.57;;;4.18;;
25123;SDS011;13104;51.030;4.686;2022-07-10T04:21:49;6.55;;;4.20;;
25123;SDS011;13104;51.030;4.686;2022-07-10T04:24:15;12.50;;;4.13;;
25123;SDS011;13104;51.030;4.686;2022-07-10T04:26:41;12.73;;;4.47;;
25123;SDS011;13104;51.030;4.686;2022-07-10T04:29:07;7.32;;;4.63;;
25123;SDS011;13104;51.030;4.686;2022-07-10T04:31:34;8.25;;;3.85;;
25123;SDS011;13104;51.030;4.686;2022-07-10T04:34:00;9.30;;;4.13;;
25123;SDS011;13104;51.030;4.686;2022-07-10T04:36:26;10.48;;;4.82;;
25123;SDS011;13104;51.030;4.686;2022-07-10T04:38:52;14.65;;;4.25;;
25123;SDS011;13104;51.030;4.686;2022-07-10T04:41:18;11.70;;;4.95;;
25123;SDS011;13104;51.030;4.686;2022-07-10T04:43:44;5.93;;;4.15;;
25123;SDS011;13104;51.030;4.686;2022-07-10T04:46:11;10.73;;;4.63;;
25123;SDS011;13104;51.030;4.686;2022-07-10T04:48:37;8.07;;;4.22;;
25123;SDS011;13104;51.030;4.686;2022-07-10T04:51:03;8.75;;;4.55;;
25123;SDS011;13104;51.030;4.686;2022-07-10T04:53:29;9.90;;;4.35;;
25123;SDS011;13104;51.030;4.686;2022-07-10T04:55:55;10.35;;;4.30;;
25123;SDS011;13104;51.030;4.686;2022-07-10T04:58:21;9.68;;;4.50;;
25123;SDS011;13104;51.030;4.686;2022-07-10T05:00:47;9.88;;;4.25;;
25123;SDS011;13104;51.030;4.686;2022-07-10T05:03:13;9.45;;;4.32;;
25123;SDS011;13104;51.030;4.686;2022-07-10T05:05:40;11.48;;;4.60;;
25123;SDS011;13104;51.030;4.686;2022-07-10T05:08:07;8.65;;;4.40;;
25123;SDS011;13104;51.030;4.686;2022-07-10T05:10:33;16.67;;;4.50;;
25123;SDS011;13104;51.030;4.686;2022-07-10T05:12:59;9.80;;;4.60;;
25123;SDS011;13104;51.030;4.686;2022-07-10T05:15:25;14.68;;;4.85;;
25123;SDS011;13104;51.030;4.686;2022-07-10T05:17:51;9.48;;;4.35;;
25123;SDS011;13104;51.030;4.686;2022-07-10T05:20:17;10.60;;;4.20;;
25123;SDS011;13104;51.030;4.686;2022-07-10T05:22:43;7.00;;;4.03;;
25123;SDS011;13104;51.030;4.686;2022-07-10T05:25:09;7.78;;;3.88;;
25123;SDS011;13104;51.030;4.686;2022-07-10T05:27:35;11.77;;;4.55;;
25123;SDS011;13104;51.030;4.686;2022-07-10T05:30:01;8.63;;;4.43;;
25123;SDS011;13104;51.030;4.686;2022-07-10T05:32:27;11.15;;;4.72;;
25123;SDS011;13104;51.030;4.686;2022-07-10T05:34:53;7.75;;;3.75;;
25123;SDS011;13104;51.030;4.686;2022-07-10T05:37:20;6.07;;;3.40;;
25123;SDS011;13104;51.030;4.686;2022-07-10T05:39:46;9.68;;;4.07;;
25123;SDS011;13104;51.030;4.686;2022-07-10T05:42:12;13.15;;;3.97;;
25123;SDS011;13104;51.030;4.686;2022-07-10T05:44:38;8.52;;;3.80;;
25123;SDS011;13104;51.030;4.686;2022-07-10T05:47:04;6.25;;;3.30;;
25123;SDS011;13104;51.030;4.686;2022-07-10T05:49:31;8.32;;;3.25;;
25123;SDS011;13104;51.030;4.686;2022-07-10T05:51:58;9.75;;;3.50;;
25123;SDS011;13104;51.030;4.686;2022-07-10T05:54:24;12.85;;;3.60;;
25123;SDS011;13104;51.030;4.686;2022-07-10T05:56:50;8.18;;;3.60;;
25123;SDS011;13104;51.030;4.686;2022-07-10T05:59:16;10.13;;;3.70;;
25123;SDS011;13104;51.030;4.686;2022-07-10T06:01:42;7.65;;;3.78;;
25123;SDS011;13104;51.030;4.686;2022-07-10T06:04:08;8.60;;;3.25;;
25123;SDS011;13104;51.030;4.686;2022-07-10T06:06:34;7.38;;;3.35;;
25123;SDS011;13104;51.030;4.686;2022-07-10T06:09:00;9.13;;;3.38;;
25123;SDS011;13104;51.030;4.686;2022-07-10T06:11:26;7.40;;;3.55;;
25123;SDS011;13104;51.030;4.686;2022-07-10T06:13:52;7.85;;;3.03;;
25123;SDS011;13104;51.030;4.686;2022-07-10T06:16:18;8.70;;;3.10;;
25123;SDS011;13104;51.030;4.686;2022-07-10T06:18:44;7.10;;;2.72;;
25123;SDS011;13104;51.030;4.686;2022-07-10T06:21:10;6.97;;;3.10;;
25123;SDS011;13104;51.030;4.686;2022-07-10T06:23:36;6.40;;;2.78;;
25123;SDS011;13104;51.030;4.686;2022-07-10T06:26:02;7.45;;;3.00;;
25123;SDS011;13104;51.030;4.686;2022-07-10T06:28:29;9.55;;;2.70;;
25123;SDS011;13104;51.030;4.686;2022-07-10T06:30:55;8.90;;;3.13;;
25123;SDS011;13104;51.030;4.686;2022-07-10T06:33:21;7.90;;;2.72;;
25123;SDS011;13104;51.030;4.686;2022-07-10T06:35:47;8.65;;;2.40;;
25123;SDS011;13104;51.030;4.686;2022-07-10T06:38:13;13.95;;;3.05;;
25123;SDS011;13104;51.030;4.686;2022-07-10T06:40:39;7.47;;;2.42;;
25123;SDS011;13104;51.030;4.686;2022-07-10T06:43:07;8.27;;;2.28;;
25123;SDS011;13104;51.030;4.686;2022-07-10T06:45:33;8.48;;;2.33;;
25123;SDS011;13104;51.030;4.686;2022-07-10T06:48:02;6.57;;;2.33;;
25123;SDS011;13104;51.030;4.686;2022-07-10T06:50:28;8.35;;;2.45;;
25123;SDS011;13104;51.030;4.686;2022-07-10T06:52:55;11.88;;;2.30;;
25123;SDS011;13104;51.030;4.686;2022-07-10T06:55:21;6.25;;;2.42;;
25123;SDS011;13104;51.030;4.686;2022-07-10T06:57:48;7.22;;;2.40;;
25123;SDS011;13104;51.030;4.686;2022-07-10T07:00:15;6.57;;;1.83;;
25123;SDS011;13104;51.030;4.686;2022-07-10T07:02:41;5.05;;;1.88;;
25123;SDS011;13104;51.030;4.686;2022-07-10T07:05:07;7.38;;;2.13;;
25123;SDS011;13104;51.030;4.686;2022-07-10T07:07:34;10.23;;;2.00;;
25123;SDS011;13104;51.030;4.686;2022-07-10T07:10:00;7.85;;;1.83;;
25123;SDS011;13104;51.030;4.686;2022-07-10T07:12:26;8.80;;;1.98;;
25123;SDS011;13104;51.030;4.686;2022-07-10T07:14:52;7.93;;;2.35;;
25123;SDS011;13104;51.030;4.686;2022-07-10T07:17:18;7.63;;;1.70;;
25123;SDS011;13104;51.030;4.686;2022-07-10T07:19:49;5.78;;;1.50;;
25123;SDS011;13104;51.030;4.686;2022-07-10T07:22:34;9.35;;;2.10;;
25123;SDS011;13104;51.030;4.686;2022-07-10T07:25:18;7.15;;;1.65;;
25123;SDS011;13104;51.030;4.686;2022-07-10T07:27:44;7.18;;;1.95;;
25123;SDS011;13104;51.030;4.686;2022-07-10T07:30:11;6.00;;;1.77;;
25123;SDS011;13104;51.030;4.686;2022-07-10T07:32:39;8.68;;;2.05;;
25123;SDS011;13104;51.030;4.686;2022-07-10T07:35:06;7.15;;;2.25;;
25123;SDS011;13104;51.030;4.686;2022-07-10T07:40:02;5.35;;;1.80;;
25123;SDS011;13104;51.030;4.686;2022-07-10T07:42:29;5.25;;;1.60;;
25123;SDS011;13104;51.030;4.686;2022-07-10T07:44:55;7.85;;;1.88;;
25123;SDS011;13104;51.030;4.686;2022-07-10T07:47:21;7.32;;;1.80;;
25123;SDS011;13104;51.030;4.686;2022-07-10T07:49:47;4.97;;;1.60;;
25123;SDS011;13104;51.030;4.686;2022-07-10T07:52:13;6.53;;;1.85;;
25123;SDS011;13104;51.030;4.686;2022-07-10T07:54:39;7.80;;;1.70;;
25123;SDS011;13104;51.030;4.686;2022-07-10T07:57:05;9.85;;;1.52;;
25123;SDS011;13104;51.030;4.686;2022-07-10T07:59:31;6.60;;;1.52;;
25123;SDS011;13104;51.030;4.686;2022-07-10T08:01:58;6.35;;;1.45;;
25123;SDS011;13104;51.030;4.686;2022-07-10T08:04:24;9.65;;;1.85;;
25123;SDS011;13104;51.030;4.686;2022-07-10T08:06:50;5.53;;;1.50;;
25123;SDS011;13104;51.030;4.686;2022-07-10T08:09:18;7.30;;;1.60;;
25123;SDS011;13104;51.030;4.686;2022-07-10T08:11:44;5.65;;;2.15;;
25123;SDS011;13104;51.030;4.686;2022-07-10T08:14:11;9.98;;;1.83;;
25123;SDS011;13104;51.030;4.686;2022-07-10T08:16:37;4.45;;;1.55;;
25123;SDS011;13104;51.030;4.686;2022-07-10T08:19:03;8.13;;;1.92;;
25123;SDS011;13104;51.030;4.686;2022-07-10T08:21:29;6.45;;;1.70;;
25123;SDS011;13104;51.030;4.686;2022-07-10T08:23:55;6.13;;;1.60;;
25123;SDS011;13104;51.030;4.686;2022-07-10T08:26:21;6.95;;;1.70;;
25123;SDS011;13104;51.030;4.686;2022-07-10T08:28:47;7.25;;;1.60;;
25123;SDS011;13104;51.030;4.686;2022-07-10T08:31:13;4.88;;;1.58;;
25123;SDS011;13104;51.030;4.686;2022-07-10T08:33:39;8.30;;;1.50;;
25123;SDS011;13104;51.030;4.686;2022-07-10T08:36:06;6.30;;;1.50;;
25123;SDS011;13104;51.030;4.686;2022-07-10T08:38:32;6.30;;;1.60;;
25123;SDS011;13104;51.030;4.686;2022-07-10T08:40:58;4.50;;;1.38;;
25123;SDS011;13104;51.030;4.686;2022-07-10T08:43:27;5.07;;;1.50;;
25123;SDS011;13104;51.030;4.686;2022-07-10T08:45:53;10.43;;;2.08;;
25123;SDS011;13104;51.030;4.686;2022-07-10T08:48:21;4.95;;;1.55;;
25123;SDS011;13104;51.030;4.686;2022-07-10T08:50:48;5.10;;;1.63;;
25123;SDS011;13104;51.030;4.686;2022-07-10T08:53:29;7.30;;;1.48;;
25123;SDS011;13104;51.030;4.686;2022-07-10T08:55:59;4.97;;;1.52;;
25123;SDS011;13104;51.030;4.686;2022-07-10T08:58:28;4.13;;;1.40;;
25123;SDS011;13104;51.030;4.686;2022-07-10T09:00:57;5.47;;;1.25;;
25123;SDS011;13104;51.030;4.686;2022-07-10T09:03:23;8.30;;;1.50;;
25123;SDS011;13104;51.030;4.686;2022-07-10T09:05:49;7.63;;;1.52;;
25123;SDS011;13104;51.030;4.686;2022-07-10T09:08:26;5.50;;;1.40;;
25123;SDS011;13104;51.030;4.686;2022-07-10T09:11:16;7.45;;;1.40;;
25123;SDS011;13104;51.030;4.686;2022-07-10T09:16:14;7.07;;;1.58;;
25123;SDS011;13104;51.030;4.686;2022-07-10T09:18:45;6.85;;;1.80;;
25123;SDS011;13104;51.030;4.686;2022-07-10T09:21:11;5.90;;;1.95;;
25123;SDS011;13104;51.030;4.686;2022-07-10T09:23:37;7.82;;;1.52;;
25123;SDS011;13104;51.030;4.686;2022-07-10T09:26:04;5.15;;;1.50;;
25123;SDS011;13104;51.030;4.686;2022-07-10T09:28:30;6.78;;;1.33;;
25123;SDS011;13104;51.030;4.686;2022-07-10T09:30:56;4.55;;;1.42;;
25123;SDS011;13104;51.030;4.686;2022-07-10T09:33:26;6.47;;;1.80;;
25123;SDS011;13104;51.030;4.686;2022-07-10T09:41:13;5.47;;;1.40;;
25123;SDS011;13104;51.030;4.686;2022-07-10T09:43:43;5.88;;;1.50;;
25123;SDS011;13104;51.030;4.686;2022-07-10T09:46:10;3.35;;;1.65;;
25123;SDS011;13104;51.030;4.686;2022-07-10T09:48:36;4.43;;;1.35;;
25123;SDS011;13104;51.030;4.686;2022-07-10T09:51:03;3.30;;;1.27;;
25123;SDS011;13104;51.030;4.686;2022-07-10T09:53:31;8.38;;;1.67;;
25123;SDS011;13104;51.030;4.686;2022-07-10T09:55:59;3.55;;;1.55;;
25123;SDS011;13104;51.030;4.686;2022-07-10T09:58:27;5.35;;;1.50;;
25123;SDS011;13104;51.030;4.686;2022-07-10T10:00:54;4.93;;;1.75;;
25123;SDS011;13104;51.030;4.686;2022-07-10T10:03:21;4.13;;;1.35;;
25123;SDS011;13104;51.030;4.686;2022-07-10T10:05:54;4.93;;;1.70;;
25123;SDS011;13104;51.030;4.686;2022-07-10T10:08:37;4.10;;;1.40;;
25123;SDS011;13104;51.030;4.686;2022-07-10T10:11:03;5.30;;;1.67;;
25123;SDS011;13104;51.030;4.686;2022-07-10T10:13:30;4.03;;;1.38;;
25123;SDS011;13104;51.030;4.686;2022-07-10T10:15:56;5.47;;;1.60;;
25123;SDS011;13104;51.030;4.686;2022-07-10T10:18:23;3.70;;;1.67;;
25123;SDS011;13104;51.030;4.686;2022-07-10T10:20:50;5.97;;;1.98;;
25123;SDS011;13104;51.030;4.686;2022-07-10T10:23:17;5.97;;;1.70;;
25123;SDS011;13104;51.030;4.686;2022-07-10T10:25:45;7.00;;;1.88;;
25123;SDS011;13104;51.030;4.686;2022-07-10T10:28:12;4.32;;;1.50;;
25123;SDS011;13104;51.030;4.686;2022-07-10T10:30:39;4.55;;;1.77;;
25123;SDS011;13104;51.030;4.686;2022-07-10T10:35:51;3.67;;;1.85;;
25123;SDS011;13104;51.030;4.686;2022-07-10T10:38:17;6.00;;;2.00;;
25123;SDS011;13104;51.030;4.686;2022-07-10T10:40:43;4.25;;;1.80;;
25123;SDS011;13104;51.030;4.686;2022-07-10T10:45:42;7.95;;;1.90;;
25123;SDS011;13104;51.030;4.686;2022-07-10T10:48:13;4.97;;;1.63;;
25123;SDS011;13104;51.030;4.686;2022-07-10T10:50:41;6.80;;;1.85;;
25123;SDS011;13104;51.030;4.686;2022-07-10T10:55:40;6.15;;;1.92;;
25123;SDS011;13104;51.030;4.686;2022-07-10T10:58:16;6.88;;;1.80;;
25123;SDS011;13104;51.030;4.686;2022-07-10T11:00:43;5.25;;;1.90;;
25123;SDS011;13104;51.030;4.686;2022-07-10T11:03:16;5.90;;;1.90;;
25123;SDS011;13104;51.030;4.686;2022-07-10T11:05:43;6.40;;;1.80;;
25123;SDS011;13104;51.030;4.686;2022-07-10T11:08:09;7.18;;;1.95;;
25123;SDS011;13104;51.030;4.686;2022-07-10T11:10:45;6.30;;;2.00;;
25123;SDS011;13104;51.030;4.686;2022-07-10T11:13:11;3.75;;;1.90;;
25123;SDS011;13104;51.030;4.686;2022-07-10T11:15:42;4.05;;;1.90;;
25123;SDS011;13104;51.030;4.686;2022-07-10T11:18:09;4.78;;;1.75;;
25123;SDS011;13104;51.030;4.686;2022-07-10T11:20:47;3.72;;;1.80;;
25123;SDS011;13104;51.030;4.686;2022-07-10T11:23:37;3.63;;;1.60;;
25123;SDS011;13104;51.030;4.686;2022-07-10T11:28:59;6.60;;;2.05;;
25123;SDS011;13104;51.030;4.686;2022-07-10T11:31:26;3.95;;;1.88;;
25123;SDS011;13104;51.030;4.686;2022-07-10T11:33:53;4.00;;;1.83;;
25123;SDS011;13104;51.030;4.686;2022-07-10T11:36:20;5.35;;;1.60;;
25123;SDS011;13104;51.030;4.686;2022-07-10T11:38:55;5.05;;;1.65;;
25123;SDS011;13104;51.030;4.686;2022-07-10T11:41:21;7.13;;;2.00;;
25123;SDS011;13104;51.030;4.686;2022-07-10T11:43:49;5.65;;;1.95;;
25123;SDS011;13104;51.030;4.686;2022-07-10T11:46:15;5.15;;;1.75;;
25123;SDS011;13104;51.030;4.686;2022-07-10T11:48:41;5.53;;;1.70;;
25123;SDS011;13104;51.030;4.686;2022-07-10T11:51:24;4.35;;;1.98;;
25123;SDS011;13104;51.030;4.686;2022-07-10T11:53:55;5.95;;;1.50;;
25123;SDS011;13104;51.030;4.686;2022-07-10T11:56:21;3.20;;;1.60;;
25123;SDS011;13104;51.030;4.686;2022-07-10T11:58:57;4.68;;;1.65;;
25123;SDS011;13104;51.030;4.686;2022-07-10T12:01:24;3.50;;;1.48;;
25123;SDS011;13104;51.030;4.686;2022-07-10T12:03:57;5.15;;;1.50;;
25123;SDS011;13104;51.030;4.686;2022-07-10T12:06:23;4.05;;;1.70;;
25123;SDS011;13104;51.030;4.686;2022-07-10T12:08:49;5.07;;;1.50;;
25123;SDS011;13104;51.030;4.686;2022-07-10T12:11:16;4.90;;;1.58;;
25123;SDS011;13104;51.030;4.686;2022-07-10T12:13:43;4.95;;;1.40;;
25123;SDS011;13104;51.030;4.686;2022-07-10T12:16:10;6.32;;;1.45;;
25123;SDS011;13104;51.030;4.686;2022-07-10T12:18:36;4.68;;;1.55;;
25123;SDS011;13104;51.030;4.686;2022-07-10T12:21:03;4.65;;;1.60;;
25123;SDS011;13104;51.030;4.686;2022-07-10T12:23:29;4.43;;;1.23;;
25123;SDS011;13104;51.030;4.686;2022-07-10T12:25:55;4.00;;;1.25;;
25123;SDS011;13104;51.030;4.686;2022-07-10T12:28:22;3.78;;;1.40;;
25123;SDS011;13104;51.030;4.686;2022-07-10T12:30:48;5.30;;;1.50;;
25123;SDS011;13104;51.030;4.686;2022-07-10T12:33:15;4.93;;;1.40;;
25123;SDS011;13104;51.030;4.686;2022-07-10T12:35:46;4.28;;;1.48;;
25123;SDS011;13104;51.030;4.686;2022-07-10T12:38:20;8.38;;;1.60;;
25123;SDS011;13104;51.030;4.686;2022-07-10T12:40:46;3.22;;;1.52;;
25123;SDS011;13104;51.030;4.686;2022-07-10T12:43:12;5.13;;;1.40;;
25123;SDS011;13104;51.030;4.686;2022-07-10T12:45:39;3.95;;;1.42;;
25123;SDS011;13104;51.030;4.686;2022-07-10T12:48:05;5.00;;;1.75;;
25123;SDS011;13104;51.030;4.686;2022-07-10T12:50:31;3.15;;;1.40;;
25123;SDS011;13104;51.030;4.686;2022-07-10T12:53:10;4.05;;;1.50;;
25123;SDS011;13104;51.030;4.686;2022-07-10T12:55:37;4.88;;;1.50;;
25123;SDS011;13104;51.030;4.686;2022-07-10T12:58:10;8.45;;;1.80;;
25123;SDS011;13104;51.030;4.686;2022-07-10T13:03:05;7.22;;;1.60;;
25123;SDS011;13104;51.030;4.686;2022-07-10T13:05:33;4.45;;;1.60;;
25123;SDS011;13104;51.030;4.686;2022-07-10T13:08:12;4.40;;;1.60;;
25123;SDS011;13104;51.030;4.686;2022-07-10T13:10:44;3.75;;;1.42;;
25123;SDS011;13104;51.030;4.686;2022-07-10T13:13:10;4.82;;;1.40;;
25123;SDS011;13104;51.030;4.686;2022-07-10T13:15:37;7.50;;;1.45;;
25123;SDS011;13104;51.030;4.686;2022-07-10T13:18:15;6.55;;;1.60;;
25123;SDS011;13104;51.030;4.686;2022-07-10T13:20:42;4.95;;;1.52;;
25123;SDS011;13104;51.030;4.686;2022-07-10T13:23:08;7.55;;;2.10;;
25123;SDS011;13104;51.030;4.686;2022-07-10T13:25:36;7.32;;;2.10;;
25123;SDS011;13104;51.030;4.686;2022-07-10T13:28:04;6.88;;;1.70;;
25123;SDS011;13104;51.030;4.686;2022-07-10T13:30:30;3.67;;;1.48;;
25123;SDS011;13104;51.030;4.686;2022-07-10T13:32:56;3.95;;;1.25;;
25123;SDS011;13104;51.030;4.686;2022-07-10T13:35:22;3.08;;;1.15;;
25123;SDS011;13104;51.030;4.686;2022-07-10T13:37:48;4.07;;;1.20;;
25123;SDS011;13104;51.030;4.686;2022-07-10T13:40:15;6.15;;;1.23;;
25123;SDS011;13104;51.030;4.686;2022-07-10T13:42:41;7.00;;;1.40;;
25123;SDS011;13104;51.030;4.686;2022-07-10T13:45:07;4.50;;;1.50;;
25123;SDS011;13104;51.030;4.686;2022-07-10T13:47:34;4.07;;;1.23;;
25123;SDS011;13104;51.030;4.686;2022-07-10T13:50:00;3.13;;;1.23;;
25123;SDS011;13104;51.030;4.686;2022-07-10T13:52:26;7.07;;;1.38;;
25123;SDS011;13104;51.030;4.686;2022-07-10T13:54:52;7.43;;;1.40;;
25123;SDS011;13104;51.030;4.686;2022-07-10T13:57:18;3.08;;;1.08;;
25123;SDS011;13104;51.030;4.686;2022-07-10T13:59:44;4.43;;;1.20;;
25123;SDS011;13104;51.030;4.686;2022-07-10T14:02:11;4.47;;;1.10;;
25123;SDS011;13104;51.030;4.686;2022-07-10T14:04:37;6.63;;;1.33;;
25123;SDS011;13104;51.030;4.686;2022-07-10T14:07:03;3.22;;;1.10;;
25123;SDS011;13104;51.030;4.686;2022-07-10T14:09:29;3.30;;;1.27;;
25123;SDS011;13104;51.030;4.686;2022-07-10T14:11:55;3.72;;;1.02;;
25123;SDS011;13104;51.030;4.686;2022-07-10T14:14:21;3.03;;;1.17;;
25123;SDS011;13104;51.030;4.686;2022-07-10T14:16:48;3.97;;;1.20;;
25123;SDS011;13104;51.030;4.686;2022-07-10T14:19:15;2.97;;;1.20;;
25123;SDS011;13104;51.030;4.686;2022-07-10T14:21:41;6.03;;;1.48;;
25123;SDS011;13104;51.030;4.686;2022-07-10T14:24:07;6.20;;;1.08;;
25123;SDS011;13104;51.030;4.686;2022-07-10T14:26:33;2.95;;;1.30;;
25123;SDS011;13104;51.030;4.686;2022-07-10T14:29:01;5.05;;;1.50;;
25123;SDS011;13104;51.030;4.686;2022-07-10T14:31:28;3.85;;;1.40;;
25123;SDS011;13104;51.030;4.686;2022-07-10T14:33:54;4.78;;;1.40;;
25123;SDS011;13104;51.030;4.686;2022-07-10T14:36:20;7.32;;;1.65;;
25123;SDS011;13104;51.030;4.686;2022-07-10T14:38:54;5.47;;;1.40;;
25123;SDS011;13104;51.030;4.686;2022-07-10T14:41:22;6.10;;;1.63;;
25123;SDS011;13104;51.030;4.686;2022-07-10T14:43:48;5.55;;;1.50;;
25123;SDS011;13104;51.030;4.686;2022-07-10T14:46:14;3.17;;;1.20;;
25123;SDS011;13104;51.030;4.686;2022-07-10T14:48:40;5.22;;;1.20;;
25123;SDS011;13104;51.030;4.686;2022-07-10T14:51:07;2.95;;;1.10;;
25123;SDS011;13104;51.030;4.686;2022-07-10T14:53:33;6.43;;;1.15;;
25123;SDS011;13104;51.030;4.686;2022-07-10T14:56:04;3.13;;;1.00;;
25123;SDS011;13104;51.030;4.686;2022-07-10T14:58:31;3.40;;;1.40;;
25123;SDS011;13104;51.030;4.686;2022-07-10T15:00:57;3.47;;;1.02;;
25123;SDS011;13104;51.030;4.686;2022-07-10T15:03:23;2.40;;;0.93;;
25123;SDS011;13104;51.030;4.686;2022-07-10T15:05:50;4.95;;;1.27;;
25123;SDS011;13104;51.030;4.686;2022-07-10T15:08:20;4.10;;;1.17;;